Time;durP1;ratioP1;P1;durP2;ratioP2;P2;SDS_P1;SDS_P2;PMS_P1;PMS_P2;Temp;Humidity;BMP_temperature;BMP_pressure;BME280_temperature;BME280_humidity;BME280_pressure;Samples;Min_cycle;Max_cycle;Signal;HPM_P1;HPM_P2
2023/03/13 00:01:21;;;;;;;65.38;39.13;;;52.00;2227.20;;;;;;4971069;28;20061;-55
2023/03/13 00:03:47;;;;;;;55.72;30.95;;;52.00;2227.20;;;;;;4971391;28;20039;-55
2023/03/13 00:06:14;;;;;;;34.47;19.40;;;52.00;2227.20;;;;;;4971137;28;20133;-55
2023/03/13 00:08:40;;;;;;;37.95;20.48;;;51.90;2227.20;;;;;;4971026;28;20049;-57
2023/03/13 00:11:07;;;;;;;38.30;22.00;;;51.30;2227.20;;;;;;4971561;28;20023;-55
2023/03/13 00:13:34;;;;;;;34.78;19.83;;;26.40;2201.60;;;;;;4971322;28;20092;-57
2023/03/13 00:16:05;;;;;;;26.20;17.05;;;26.20;2201.60;;;;;;4971104;28;20023;-55
2023/03/13 00:18:31;;;;;;;28.33;16.23;;;26.10;2201.60;;;;;;4971102;28;20030;-55
2023/03/13 00:21:05;;;;;;;30.95;17.83;;;25.90;2201.60;;;;;;4971254;28;20027;-55
2023/03/13 00:23:33;;;;;;;31.40;18.48;;;26.30;2201.60;;;;;;4970692;28;20043;-53
2023/03/13 00:26:01;;;;;;;37.75;22.10;;;26.30;2201.60;;;;;;4970561;28;20030;-56
2023/03/13 00:28:28;;;;;;;50.03;33.20;;;26.40;2201.60;;;;;;4970594;28;20041;-54
2023/03/13 00:31:09;;;;;;;56.67;36.92;;;51.20;2227.20;;;;;;4970616;28;20031;-55
2023/03/13 00:33:36;;;;;;;30.65;16.95;;;51.30;2227.20;;;;;;4971174;28;20035;-53
2023/03/13 00:36:04;;;;;;;28.40;15.43;;;51.30;2227.20;;;;;;4971301;28;20110;-53
2023/03/13 00:38:31;;;;;;;32.53;19.38;;;51.40;2227.20;;;;;;4954418;28;20073;-55
2023/03/13 00:41:20;;;;;;;26.33;16.38;;;51.30;2227.20;;;;;;4960752;28;20109;-54
2023/03/13 00:43:47;;;;;;;31.27;19.38;;;51.30;2227.20;;;;;;4969750;28;20043;-53
2023/03/13 00:46:15;;;;;;;27.88;17.23;;;51.30;2227.20;;;;;;4970507;28;20023;-54
2023/03/13 00:48:41;;;;;;;31.48;18.50;;;51.40;2227.20;;;;;;4970620;28;20027;-53
2023/03/13 00:51:08;;;;;;;43.78;23.98;;;51.40;2227.20;;;;;;4970316;28;20034;-54
2023/03/13 00:53:34;;;;;;;30.75;15.10;;;51.20;2227.20;;;;;;4970854;28;20081;-56
2023/03/13 00:56:03;;;;;;;37.70;21.00;;;26.20;2201.60;;;;;;4970267;28;20030;-54
2023/03/13 00:58:31;;;;;;;34.60;21.55;;;26.20;2201.60;;;;;;4970430;28;20045;-55
2023/03/13 01:01:04;;;;;;;37.92;22.70;;;26.30;2201.60;;;;;;4970325;28;20027;-53
2023/03/13 01:03:30;;;;;;;;;;;26.30;2201.60;;;;;;4970785;28;20114;-53
2023/03/13 01:06:00;;;;;;;35.42;18.80;;;26.50;2201.60;;;;;;4970454;28;20026;-55
2023/03/13 01:08:28;;;;;;;27.40;15.52;;;26.40;2201.60;;;;;;4970516;28;20106;-56
2023/03/13 01:11:17;;;;;;;33.55;20.00;;;26.50;2201.60;;;;;;4969958;28;20053;-55
2023/03/13 01:13:43;;;;;;;29.58;16.80;;;26.50;2201.60;;;;;;4969717;28;20050;-54
2023/03/13 01:16:12;;;;;;;26.40;15.73;;;51.20;2227.20;;;;;;4970284;28;20015;-53
2023/03/13 01:18:40;;;;;;;58.38;32.65;;;51.30;2227.20;;;;;;4969969;28;20022;-53
2023/03/13 01:21:07;;;;;;;36.08;21.02;;;51.30;2227.20;;;;;;4970409;28;20027;-54
2023/03/13 01:23:33;;;;;;;41.85;20.73;;;51.30;2227.20;;;;;;4970446;28;20066;-55
2023/03/13 01:25:59;;;;;;;28.65;18.13;;;51.30;2227.20;;;;;;4970253;28;20023;-55
2023/03/13 01:28:25;;;;;;;27.92;17.90;;;51.30;2227.20;;;;;;4952628;28;20532;-58
2023/03/13 01:30:52;;;;;;;28.92;19.20;;;51.30;2227.20;;;;;;4970342;28;20030;-56
2023/03/13 01:33:18;;;;;;;24.63;14.25;;;51.20;2227.20;;;;;;4970183;28;20110;-56
2023/03/13 01:35:44;;;;;;;26.77;12.75;;;26.50;2201.60;;;;;;4971553;28;20109;-54
2023/03/13 01:38:10;;;;;;;25.00;14.60;;;26.50;2201.60;;;;;;4973957;28;20033;-54
2023/03/13 01:40:47;;;;;;;30.17;20.85;;;26.40;2201.60;;;;;;4974102;28;20035;-52
2023/03/13 01:43:22;;;;;;;23.95;15.50;;;26.40;2201.60;;;;;;4974046;28;20019;-55
2023/03/13 01:46:01;;;;;;;19.00;10.40;;;26.50;2201.60;;;;;;4973376;28;20105;-53
2023/03/13 01:48:48;;;;;;;26.10;16.90;;;26.30;2201.60;;;;;;4973838;28;20033;-52
2023/03/13 01:51:16;;;;;;;33.05;12.77;;;26.40;2201.60;;;;;;4962159;28;20397;-55
2023/03/13 01:53:46;;;;;;;29.50;18.10;;;26.10;2201.60;;;;;;4973606;28;20059;-56
2023/03/13 01:56:20;;;;;;;31.73;18.65;;;25.80;2201.60;;;;;;4973836;28;20023;-55
2023/03/13 01:58:49;;;;;;;44.28;25.35;;;25.60;2201.60;;;;;;4973080;28;20030;-57
2023/03/13 02:01:17;;;;;;;41.65;24.35;;;25.70;2201.60;;;;;;4973671;28;20039;-55
2023/03/13 02:03:43;;;;;;;30.42;17.80;;;25.90;2201.60;;;;;;4973761;28;20039;-54
2023/03/13 02:06:10;;;;;;;25.77;14.82;;;26.00;2201.60;;;;;;4973492;28;20379;-56
2023/03/13 02:08:43;;;;;;;25.80;14.40;;;26.10;2201.60;;;;;;4973374;28;20466;-55
2023/03/13 02:11:11;;;;;;;24.10;15.45;;;26.20;2201.60;;;;;;4973291;28;20023;-57
2023/03/13 02:13:37;;;;;;;27.85;14.27;;;26.30;2201.60;;;;;;4973440;28;20046;-54
2023/03/13 02:16:04;;;;;;;24.17;14.52;;;26.40;2201.60;;;;;;4973620;28;20470;-56
2023/03/13 02:18:29;;;;;;;36.05;23.13;;;26.30;2201.60;;;;;;4973330;28;20098;-55
2023/03/13 02:21:04;;;;;;;62.10;37.42;;;26.20;2201.60;;;;;;4972804;28;20434;-54
2023/03/13 02:23:58;;;;;;;46.78;30.08;;;26.30;2201.60;;;;;;4973010;28;20363;-55
2023/03/13 02:26:23;;;;;;;;;;;26.30;2201.60;;;;;;4973712;28;20041;-55
2023/03/13 02:28:49;;;;;;;60.25;43.88;;;26.20;2201.60;;;;;;4973102;28;19906;-55
2023/03/13 02:31:15;;;;;;;21.67;12.70;;;26.20;2201.60;;;;;;4973264;28;20523;-55
2023/03/13 02:33:43;;;;;;;18.33;9.20;;;26.20;2201.60;;;;;;4972973;28;20558;-55
2023/03/13 02:36:10;;;;;;;36.13;22.98;;;26.20;2201.60;;;;;;4973093;28;20030;-52
2023/03/13 02:38:45;;;;;;;51.00;26.45;;;26.20;2201.60;;;;;;4972498;28;20492;-54
2023/03/13 02:41:12;;;;;;;60.67;35.10;;;26.20;2201.60;;;;;;4972630;28;20486;-55
2023/03/13 02:43:38;;;;;;;20.52;13.68;;;26.20;2201.60;;;;;;4972429;28;20449;-53
2023/03/13 02:46:13;;;;;;;27.55;14.98;;;26.10;2201.60;;;;;;4972811;28;20118;-54
2023/03/13 02:48:50;;;;;;;15.43;10.25;;;26.20;2201.60;;;;;;4971669;28;20023;-55
2023/03/13 02:51:33;;;;;;;22.33;13.73;;;26.20;2201.60;;;;;;4972529;28;20034;-54
2023/03/13 02:54:08;;;;;;;13.77;7.90;;;26.20;2201.60;;;;;;4972644;28;20081;-54
2023/03/13 02:56:36;;;;;;;16.05;8.52;;;26.20;2201.60;;;;;;4972924;28;20255;-54
2023/03/13 02:59:02;;;;;;;15.07;8.63;;;26.30;2201.60;;;;;;4972148;28;20038;-55
2023/03/13 03:01:28;;;;;;;14.75;9.27;;;26.30;2201.60;;;;;;4972516;28;20031;-54
2023/03/13 03:03:53;;;;;;;15.45;8.60;;;26.30;2201.60;;;;;;4959471;28;20404;-53
2023/03/13 03:06:19;;;;;;;10.13;5.60;;;26.30;2201.60;;;;;;4972314;28;20023;-53
2023/03/13 03:08:45;;;;;;;9.20;5.88;;;26.30;2201.60;;;;;;4972373;28;20023;-53
2023/03/13 03:11:11;;;;;;;11.40;7.50;;;26.20;2201.60;;;;;;4972303;28;20082;-52
2023/03/13 03:13:37;;;;;;;9.35;5.28;;;26.30;2201.60;;;;;;4972051;28;20378;-54
2023/03/13 03:16:14;;;;;;;9.32;6.30;;;26.30;2201.60;;;;;;4972692;28;20101;-55
2023/03/13 03:18:40;;;;;;;11.27;7.05;;;26.00;2201.60;;;;;;4971959;28;20031;-54
2023/03/13 03:21:06;;;;;;;13.13;7.47;;;26.10;2201.60;;;;;;4972094;28;20023;-53
2023/03/13 03:23:33;;;;;;;11.75;7.45;;;26.00;2201.60;;;;;;4972406;28;20031;-56
2023/03/13 03:25:59;;;;;;;10.52;6.45;;;26.10;2201.60;;;;;;4971653;28;20493;-56
2023/03/13 03:28:25;;;;;;;8.27;4.88;;;26.10;2201.60;;;;;;4972155;28;20019;-55
2023/03/13 03:30:53;;;;;;;10.95;5.82;;;26.20;2201.60;;;;;;4971870;28;20485;-55
2023/03/13 03:33:19;;;;;;;8.75;5.22;;;26.10;2201.60;;;;;;4971912;28;20033;-55
2023/03/13 03:35:45;;;;;;;10.48;6.53;;;26.20;2201.60;;;;;;4972080;28;20363;-55
2023/03/13 03:38:11;;;;;;;11.45;6.75;;;26.20;2201.60;;;;;;4972168;28;20030;-55
2023/03/13 03:40:36;;;;;;;8.75;6.28;;;26.30;2201.60;;;;;;4953934;28;20039;-54
2023/03/13 03:43:02;;;;;;;9.27;5.85;;;26.20;2201.60;;;;;;4971811;28;20033;-55
2023/03/13 03:45:28;;;;;;;8.57;5.15;;;26.10;2201.60;;;;;;4971619;28;20050;-54
2023/03/13 03:47:53;;;;;;;9.38;5.68;;;26.00;2201.60;;;;;;4971482;28;20106;-55
2023/03/13 03:50:19;;;;;;;12.40;6.80;;;26.00;2201.60;;;;;;4971269;28;20137;-54
2023/03/13 03:52:45;;;;;;;12.35;7.82;;;26.00;2201.60;;;;;;4971858;28;20704;-53
2023/03/13 03:55:11;;;;;;;15.20;9.73;;;26.00;2201.60;;;;;;4971669;28;20019;-53
2023/03/13 03:57:37;;;;;;;15.00;8.38;;;26.00;2201.60;;;;;;4971187;28;20026;-54
2023/03/13 04:00:04;;;;;;;14.95;7.63;;;26.00;2201.60;;;;;;4971820;28;20062;-53
2023/03/13 04:02:30;;;;;;;14.52;7.47;;;26.00;2201.60;;;;;;4971210;28;20080;-54
2023/03/13 04:04:55;;;;;;;13.57;5.75;;;26.10;2201.60;;;;;;4971526;28;20050;-54
2023/03/13 04:07:21;;;;;;;10.05;5.07;;;26.10;2201.60;;;;;;4971386;28;20019;-53
2023/03/13 04:09:46;;;;;;;8.60;4.85;;;26.10;2201.60;;;;;;4971044;28;20062;-53
2023/03/13 04:12:12;;;;;;;8.77;5.60;;;26.20;2201.60;;;;;;4971367;28;20476;-53
2023/03/13 04:14:38;;;;;;;9.27;5.78;;;26.20;2201.60;;;;;;4961583;28;20110;-53
2023/03/13 04:17:04;;;;;;;11.90;6.57;;;26.20;2201.60;;;;;;4967979;28;20030;-53
2023/03/13 04:19:29;;;;;;;11.60;6.85;;;26.30;2201.60;;;;;;4971325;28;20030;-55
2023/03/13 04:21:55;;;;;;;11.90;7.82;;;26.30;2201.60;;;;;;4971002;28;20027;-53
2023/03/13 04:24:21;;;;;;;11.57;7.35;;;26.20;2201.60;;;;;;4971233;28;20121;-53
2023/03/13 04:26:46;;;;;;;12.52;7.60;;;26.20;2201.60;;;;;;4971083;28;20034;-54
2023/03/13 04:29:12;;;;;;;10.48;5.97;;;26.10;2201.60;;;;;;4971124;28;20035;-53
2023/03/13 04:31:37;;;;;;;11.63;6.15;;;26.10;2201.60;;;;;;4970854;28;20438;-54
2023/03/13 04:34:03;;;;;;;10.68;6.03;;;26.10;2201.60;;;;;;4971174;28;20027;-54
2023/03/13 04:36:29;;;;;;;8.48;5.55;;;26.20;2201.60;;;;;;4970736;28;20118;-54
2023/03/13 04:38:54;;;;;;;9.88;5.95;;;26.20;2201.60;;;;;;4971209;28;20035;-53
2023/03/13 04:41:20;;;;;;;18.38;9.35;;;26.20;2201.60;;;;;;4970696;28;20473;-56
2023/03/13 04:43:46;;;;;;;10.20;7.15;;;26.30;2201.60;;;;;;4970516;28;20035;-54
2023/03/13 04:46:11;;;;;;;12.45;7.63;;;26.30;2201.60;;;;;;4971005;28;20031;-53
2023/03/13 04:48:37;;;;;;;16.70;8.35;;;26.40;2201.60;;;;;;4970721;28;20037;-54
2023/03/13 04:51:03;;;;;;;16.17;8.05;;;26.40;2201.60;;;;;;4970885;28;20058;-53
2023/03/13 04:53:28;;;;;;;12.93;7.25;;;26.50;2201.60;;;;;;4971031;28;20031;-54
2023/03/13 04:55:54;;;;;;;9.98;7.20;;;26.40;2201.60;;;;;;4970618;28;20039;-52
2023/03/13 04:58:20;;;;;;;12.98;7.78;;;26.40;2201.60;;;;;;4970609;28;20031;-54
2023/03/13 05:00:45;;;;;;;7.50;4.78;;;26.40;2201.60;;;;;;4970597;28;20034;-54
2023/03/13 05:03:11;;;;;;;8.82;4.63;;;26.30;2201.60;;;;;;4968375;28;20112;-55
2023/03/13 05:05:37;;;;;;;7.18;4.25;;;26.30;2201.60;;;;;;4951370;28;20043;-55
2023/03/13 05:08:03;;;;;;;8.82;4.60;;;26.30;2201.60;;;;;;4951579;28;20046;-53
2023/03/13 05:10:29;;;;;;;22.63;11.40;;;26.30;2201.60;;;;;;4960869;28;20022;-54
2023/03/13 05:12:55;;;;;;;39.78;18.60;;;26.30;2201.60;;;;;;4974663;28;20488;-54
2023/03/13 05:15:21;;;;;;;21.20;9.85;;;26.50;2201.60;;;;;;4974842;28;20098;-55
2023/03/13 05:17:46;;;;;;;17.52;7.93;;;26.50;2201.60;;;;;;4974610;28;20027;-54
2023/03/13 05:20:12;;;;;;;15.73;8.40;;;51.20;2227.20;;;;;;4974413;28;20418;-53
2023/03/13 05:22:38;;;;;;;21.13;10.00;;;26.50;2201.60;;;;;;4974519;28;20494;-54
2023/03/13 05:25:04;;;;;;;21.13;11.05;;;51.30;2227.20;;;;;;4974466;28;20401;-54
2023/03/13 05:27:30;;;;;;;18.17;10.15;;;51.40;2227.20;;;;;;4968449;28;20031;-55
2023/03/13 05:29:56;;;;;;;23.30;11.23;;;51.30;2227.20;;;;;;4966398;28;20043;-54
2023/03/13 05:32:22;;;;;;;19.80;10.30;;;51.50;2227.20;;;;;;4974259;28;20031;-55
2023/03/13 05:34:47;;;;;;;11.38;7.18;;;51.60;2227.20;;;;;;4973966;28;20030;-54
2023/03/13 05:37:13;;;;;;;19.63;10.25;;;51.60;2227.20;;;;;;4974439;28;20027;-54
2023/03/13 05:39:39;;;;;;;40.35;22.73;;;51.70;2227.20;;;;;;4960568;28;20051;-54
2023/03/13 05:42:04;;;;;;;69.78;42.88;;;51.80;2227.20;;;;;;4974134;28;20023;-55
2023/03/13 05:44:30;;;;;;;59.03;37.00;;;51.80;2227.20;;;;;;4973635;28;20117;-54
2023/03/13 05:46:56;;;;;;;47.20;30.75;;;51.90;2227.20;;;;;;4974208;28;20430;-55
2023/03/13 05:49:21;;;;;;;21.20;13.13;;;51.90;2227.20;;;;;;4973823;28;20490;-54
2023/03/13 05:51:47;;;;;;;19.65;12.38;;;52.00;2227.20;;;;;;4973919;28;20114;-56
2023/03/13 05:54:13;;;;;;;19.13;11.00;;;51.80;2227.20;;;;;;4974075;28;20022;-56
2023/03/13 05:56:39;;;;;;;32.88;16.95;;;51.90;2227.20;;;;;;4973756;28;20031;-57
2023/03/13 05:59:04;;;;;;;45.03;24.80;;;52.10;2227.20;;;;;;4973767;28;20470;-57
2023/03/13 06:01:30;;;;;;;40.92;24.15;;;76.90;2227.20;;;;;;4973803;28;20031;-55
2023/03/13 06:03:55;;;;;;;22.55;13.68;;;77.00;2227.20;;;;;;4973678;28;20482;-55
2023/03/13 06:06:21;;;;;;;83.65;47.38;;;77.00;2227.20;;;;;;4973900;28;20019;-57
2023/03/13 06:08:47;;;;;;;86.50;49.78;;;76.90;2227.20;;;;;;4973108;28;20058;-54
2023/03/13 06:11:12;;;;;;;64.57;39.33;;;77.00;2227.20;;;;;;4973677;28;20038;-56
2023/03/13 06:13:38;;;;;;;46.90;27.40;;;77.10;2227.20;;;;;;4973351;28;20125;-64
2023/03/13 06:16:04;;;;;;;37.25;21.83;;;77.10;2227.20;;;;;;4973128;28;20402;-65
2023/03/13 06:18:30;;;;;;;30.52;18.20;;;77.10;2227.20;;;;;;4955640;28;20545;-66
2023/03/13 06:20:58;;;;;;;27.58;18.30;;;77.40;2227.20;;;;;;4973412;28;20102;-66
2023/03/13 06:23:24;;;;;;;27.80;12.57;;;128.70;2252.80;;;;;;4971834;28;20022;-60
2023/03/13 06:25:49;;;;;;;31.80;15.77;;;205.00;2150.40;;;;;;4972940;28;20500;-61
2023/03/13 06:28:15;;;;;;;18.00;11.02;;;231.10;1971.20;;;;;;4960590;28;20540;-60
2023/03/13 06:30:41;;;;;;;14.82;11.63;;;281.60;1843.20;;;;;;4973345;28;20063;-61
2023/03/13 06:33:07;;;;;;;12.75;10.38;;;307.30;1766.40;;;;;;4973380;28;20062;-61
2023/03/13 06:35:33;;;;;;;51.58;29.83;;;308.10;1689.60;;;;;;4973405;28;20123;-61
2023/03/13 06:37:58;;;;;;;43.20;32.33;;;358.60;1561.60;;;;;;4973224;28;20045;-60
2023/03/13 06:40:24;;;;;;;93.53;64.93;;;358.40;1561.60;;;;;;4973129;28;20474;-61
2023/03/13 06:42:50;;;;;;;111.38;78.95;;;333.50;1612.80;;;;;;4972901;28;20033;-62
2023/03/13 06:45:16;;;;;;;155.35;116.78;;;358.80;1587.20;;;;;;4972884;28;20038;-63
2023/03/13 06:47:42;;;;;;;164.02;116.78;;;333.30;1664.00;;;;;;4973162;28;20023;-61
2023/03/13 06:50:08;;;;;;;116.85;93.90;;;333.00;1689.60;;;;;;4972787;28;20397;-63
2023/03/13 06:52:34;;;;;;;121.00;89.82;;;333.50;1664.00;;;;;;4972450;28;20027;-61
2023/03/13 06:55:00;;;;;;;81.90;64.05;;;384.20;1561.60;;;;;;4972389;28;20103;-61
2023/03/13 06:57:26;;;;;;;77.00;58.60;;;384.20;1510.40;;;;;;4972715;28;20034;-61
2023/03/13 06:59:51;;;;;;;76.13;59.80;;;384.70;1459.20;;;;;;4972659;28;20453;-61
2023/03/13 07:02:17;;;;;;;64.45;49.80;;;410.20;1459.20;;;;;;4972394;28;20038;-61
2023/03/13 07:04:43;;;;;;;69.95;53.35;;;410.50;1433.60;;;;;;4973040;28;20035;-61
2023/03/13 07:07:08;;;;;;;71.30;57.15;;;460.90;1382.40;;;;;;4970162;28;20027;-67
2023/03/13 07:09:34;;;;;;;63.65;52.28;;;461.20;1331.20;;;;;;4970620;28;20386;-62
2023/03/13 07:12:02;;;;;;;79.45;67.65;;;435.40;1382.40;;;;;;4970645;28;20027;-62
2023/03/13 07:14:27;;;;;;;84.72;64.80;;;461.20;1331.20;;;;;;4970679;28;20035;-62
2023/03/13 07:16:53;;;;;;;61.85;44.40;;;487.10;1254.40;;;;;;4970777;28;20042;-61
2023/03/13 07:19:19;;;;;;;53.50;42.53;;;487.30;1228.80;;;;;;4970275;28;20541;-61
2023/03/13 07:21:45;;;;;;;50.20;40.88;;;512.30;1228.80;;;;;;4970948;28;20545;-61
2023/03/13 07:24:11;;;;;;;55.97;45.42;;;537.80;1203.20;;;;;;4970452;28;20046;-62
2023/03/13 07:26:37;;;;;;;81.88;59.70;;;537.60;1228.80;;;;;;4971005;28;20091;-63
2023/03/13 07:29:04;;;;;;;100.30;75.43;;;538.30;1177.60;;;;;;4972640;28;20030;-62
2023/03/13 07:31:32;;;;;;;76.85;54.33;;;564.10;1152.00;;;;;;4971979;28;20033;-61
2023/03/13 07:33:58;;;;;;;51.53;43.03;;;564.00;1126.40;;;;;;4971568;28;20430;-64
2023/03/13 07:36:24;;;;;;;71.35;54.45;;;589.70;1100.80;;;;;;4972173;28;20378;-61
2023/03/13 07:38:51;;;;;;;52.58;37.88;;;589.70;1100.80;;;;;;4971647;28;20027;-61
2023/03/13 07:41:18;;;;;;;50.80;40.25;;;589.60;1075.20;;;;;;4959211;28;20039;-62
2023/03/13 07:43:44;;;;;;;79.75;40.10;;;615.10;1024.00;;;;;;4971668;28;20385;-63
2023/03/13 07:46:17;;;;;;;54.63;43.92;;;589.70;1075.20;;;;;;4971643;28;20030;-61
2023/03/13 07:48:43;;;;;;;64.70;49.05;;;589.50;1075.20;;;;;;4971905;28;20061;-62
2023/03/13 07:51:20;;;;;;;58.40;50.67;;;640.70;998.40;;;;;;4971480;28;20030;-62
2023/03/13 07:53:46;;;;;;;73.65;64.57;;;665.60;998.40;;;;;;4971516;28;20066;-63
2023/03/13 07:56:15;;;;;;;92.80;78.70;;;691.20;972.80;;;;;;4971242;28;20109;-63
2023/03/13 07:58:41;;;;;;;65.70;55.97;;;666.40;972.80;;;;;;4971432;28;20022;-62
2023/03/13 08:01:10;;;;;;;47.38;40.30;;;666.10;972.80;;;;;;4971317;28;20030;-62
2023/03/13 08:03:37;;;;;;;69.30;55.30;;;665.70;972.80;;;;;;4971552;28;20474;-62
2023/03/13 08:06:05;;;;;;;58.15;51.80;;;614.70;1024.00;;;;;;4971401;28;20355;-63
2023/03/13 08:08:31;;;;;;;87.28;56.60;;;640.10;998.40;;;;;;4971425;28;20478;-62
2023/03/13 08:11:05;;;;;;;183.25;153.93;;;640.30;1024.00;;;;;;4971417;28;20099;-63
2023/03/13 08:13:32;;;;;;;68.28;57.47;;;640.90;972.80;;;;;;4971610;28;20039;-61
2023/03/13 08:16:09;;;;;;;55.08;49.28;;;640.00;998.40;;;;;;4970997;28;20023;-62
2023/03/13 08:18:36;;;;;;;56.55;50.47;;;640.20;998.40;;;;;;4971474;28;20031;-63
2023/03/13 08:21:10;;;;;;;58.88;50.58;;;614.70;1049.60;;;;;;4971343;28;20019;-61
2023/03/13 08:23:36;;;;;;;59.20;48.92;;;691.70;947.20;;;;;;4971371;28;20015;-61
2023/03/13 08:26:05;;;;;;;50.28;44.65;;;716.80;947.20;;;;;;4971701;28;20035;-68
2023/03/13 08:28:31;;;;;;;41.47;36.65;;;666.20;947.20;;;;;;4971255;28;20014;-68
2023/03/13 08:30:57;;;;;;;53.33;46.08;;;640.00;972.80;;;;;;4970981;28;20034;-61
2023/03/13 08:33:23;;;;;;;62.10;53.95;;;640.50;972.80;;;;;;4971103;28;20043;-62
2023/03/13 08:35:48;;;;;;;58.15;51.22;;;666.30;947.20;;;;;;4971085;28;20085;-68
2023/03/13 08:38:14;;;;;;;49.35;43.97;;;717.10;921.60;;;;;;4971167;28;20035;-64
2023/03/13 08:40:40;;;;;;;48.75;42.78;;;691.80;921.60;;;;;;4971067;28;20031;-67
2023/03/13 08:43:05;;;;;;;50.33;42.25;;;640.00;998.40;;;;;;4971041;28;20533;-68
2023/03/13 08:45:31;;;;;;;45.85;39.90;;;614.90;1024.00;;;;;;4970319;28;20122;-68
2023/03/13 08:47:57;;;;;;;44.90;40.42;;;691.20;972.80;;;;;;4971113;28;20027;-67
2023/03/13 08:50:22;;;;;;;39.20;33.60;;;640.00;998.40;;;;;;4970619;28;20081;-68
2023/03/13 08:52:48;;;;;;;28.38;24.85;;;615.30;1024.00;;;;;;4957820;28;20486;-62
2023/03/13 08:55:15;;;;;;;38.00;33.97;;;640.60;998.40;;;;;;4971064;28;20037;-64
2023/03/13 08:57:40;;;;;;;33.10;27.63;;;640.10;1024.00;;;;;;4970767;28;20031;-62
2023/03/13 09:00:07;;;;;;;38.55;31.80;;;589.50;1049.60;;;;;;4970658;28;20031;-63
2023/03/13 09:02:32;;;;;;;39.78;33.95;;;640.10;1024.00;;;;;;4970769;28;20023;-62
2023/03/13 09:04:58;;;;;;;37.03;32.33;;;666.10;998.40;;;;;;4970230;28;20035;-62
2023/03/13 09:07:24;;;;;;;32.90;26.95;;;589.60;1075.20;;;;;;4970919;28;20090;-63
2023/03/13 09:09:49;;;;;;;28.45;25.63;;;564.00;1126.40;;;;;;4970731;28;20031;-63
2023/03/13 09:12:15;;;;;;;34.90;28.90;;;563.90;1126.40;;;;;;4970906;28;20424;-63
2023/03/13 09:14:41;;;;;;;28.10;24.77;;;538.20;1152.00;;;;;;4970533;28;20553;-63
2023/03/13 09:17:06;;;;;;;31.90;27.20;;;537.60;1152.00;;;;;;4970575;28;20046;-61
2023/03/13 09:19:32;;;;;;;36.33;28.20;;;486.90;1228.80;;;;;;4970624;28;20023;-62
2023/03/13 09:21:58;;;;;;;35.08;28.40;;;486.90;1228.80;;;;;;4970156;28;20486;-61
2023/03/13 09:24:24;;;;;;;33.90;27.20;;;486.80;1228.80;;;;;;4970775;28;20106;-64
2023/03/13 09:26:50;;;;;;;30.80;23.23;;;486.50;1280.00;;;;;;4970777;28;20031;-66
2023/03/13 09:29:16;;;;;;;30.02;25.77;;;461.10;1280.00;;;;;;4970456;28;20039;-62
2023/03/13 09:31:41;;;;;;;39.25;22.90;;;461.10;1331.20;;;;;;4970509;28;20081;-61
2023/03/13 09:34:07;;;;;;;33.40;21.73;;;410.30;1356.80;;;;;;4970906;28;20032;-63
2023/03/13 09:36:33;;;;;;;29.63;23.33;;;410.20;1356.80;;;;;;4970757;28;20768;-62
2023/03/13 09:38:59;;;;;;;20.95;16.92;;;410.00;1382.40;;;;;;4970200;28;20027;-61
2023/03/13 09:41:35;;;;;;;19.65;15.20;;;384.60;1382.40;;;;;;4970547;28;20367;-66
2023/03/13 09:44:04;;;;;;;24.77;15.57;;;409.60;1382.40;;;;;;4970566;28;20083;-66
2023/03/13 09:46:43;;;;;;;23.75;16.60;;;410.30;1382.40;;;;;;4970110;28;20409;-61
2023/03/13 09:49:22;;;;;;;28.25;19.50;;;410.30;1356.80;;;;;;4970159;28;20058;-62
2023/03/13 09:51:53;;;;;;;24.75;16.70;;;410.30;1382.40;;;;;;4970053;28;20118;-61
2023/03/13 09:54:26;;;;;;;21.95;14.25;;;410.00;1356.80;;;;;;4970418;28;20075;-64
2023/03/13 09:57:26;;;;;;;19.95;13.50;;;384.30;1408.00;;;;;;4972032;28;20112;-64
2023/03/13 10:00:05;;;;;;;26.38;19.27;;;409.70;1382.40;;;;;;4895285;29;20033;-62
2023/03/13 10:02:36;;;;;;;24.30;14.40;;;384.50;1408.00;;;;;;4895472;29;20041;-61
2023/03/13 10:05:07;;;;;;;18.08;12.75;;;384.20;1408.00;;;;;;4895161;29;20051;-61
2023/03/13 10:07:33;;;;;;;20.42;13.90;;;384.70;1382.40;;;;;;4895536;29;20103;-61
2023/03/13 10:10:02;;;;;;;15.07;10.93;;;384.10;1433.60;;;;;;4894919;29;20456;-65
2023/03/13 10:12:37;;;;;;;18.27;13.07;;;359.20;1408.00;;;;;;4895099;29;20450;-67
2023/03/13 10:15:15;;;;;;;23.08;13.95;;;384.40;1408.00;;;;;;4895105;29;20503;-67
2023/03/13 10:17:41;;;;;;;18.38;9.93;;;384.10;1433.60;;;;;;4884222;29;20507;-65
2023/03/13 10:20:23;;;;;;;14.98;11.30;;;384.20;1408.00;;;;;;4895032;29;20033;-65
2023/03/13 10:23:26;;;;;;;13.85;8.48;;;384.20;1331.20;;;;;;4894994;29;20025;-64
2023/03/13 10:25:52;;;;;;;18.27;10.32;;;384.70;1280.00;;;;;;4894941;29;20039;-66
2023/03/13 10:28:21;;;;;;;15.73;9.95;;;384.90;1305.60;;;;;;4894745;29;20504;-66
2023/03/13 10:31:05;;;;;;;11.13;7.50;;;409.70;1356.80;;;;;;4894688;29;20137;-62
2023/03/13 10:33:33;;;;;;;15.40;9.07;;;384.10;1280.00;;;;;;4894763;29;20031;-61
2023/03/13 10:36:01;;;;;;;16.88;9.90;;;384.40;1305.60;;;;;;4903191;29;20074;-66
2023/03/13 10:38:26;;;;;;;9.32;8.23;;;384.70;1305.60;;;;;;4972089;28;20033;-61
2023/03/13 10:41:05;;;;;;;17.35;10.45;;;409.70;1280.00;;;;;;4973458;28;20023;-61
2023/03/13 10:43:30;;;;;;;13.68;8.82;;;409.80;1331.20;;;;;;4972954;28;20110;-65
2023/03/13 10:45:57;;;;;;;16.42;9.75;;;409.60;1305.60;;;;;;4972616;28;20122;-64
2023/03/13 10:48:28;;;;;;;10.02;7.72;;;409.70;1280.00;;;;;;4973287;28;20054;-61
2023/03/13 10:50:57;;;;;;;22.05;16.10;;;384.80;1305.60;;;;;;4972781;28;20046;-66
2023/03/13 10:53:29;;;;;;;13.68;10.63;;;384.60;1331.20;;;;;;4973030;28;20033;-62
2023/03/13 10:55:57;;;;;;;37.80;27.80;;;384.70;1331.20;;;;;;4972444;28;20066;-62
2023/03/13 10:58:47;;;;;;;16.15;13.77;;;384.70;1331.20;;;;;;4972758;28;20029;-61
2023/03/13 11:01:16;;;;;;;11.57;8.75;;;384.60;1331.20;;;;;;4950842;28;20445;-67
2023/03/13 11:03:42;;;;;;;12.15;9.23;;;384.90;1356.80;;;;;;4972929;28;20039;-66
2023/03/13 11:06:23;;;;;;;22.83;20.60;;;384.90;1331.20;;;;;;4960073;28;20032;-63
2023/03/13 11:08:48;;;;;;;17.30;10.90;;;409.70;1356.80;;;;;;4970809;28;20027;-62
2023/03/13 11:11:19;;;;;;;35.95;27.25;;;409.60;1356.80;;;;;;4972107;28;20117;-66
2023/03/13 11:13:45;;;;;;;29.65;22.02;;;409.70;1356.80;;;;;;4972126;28;20034;-65
2023/03/13 11:16:28;;;;;;;17.25;12.05;;;384.90;1356.80;;;;;;4972132;28;20445;-61
2023/03/13 11:19:25;;;;;;;26.02;15.30;;;384.90;1382.40;;;;;;4972198;28;20382;-66
2023/03/13 11:22:06;;;;;;;12.63;9.40;;;409.60;1382.40;;;;;;4974130;28;20070;-67
2023/03/13 11:24:55;;;;;;;33.53;30.05;;;384.90;1382.40;;;;;;4980730;28;20035;-63
2023/03/13 11:28:08;;;;;;;17.08;11.52;;;409.90;1408.00;;;;;;4972109;28;20050;-62
2023/03/13 11:31:03;;;;;;;15.05;8.98;;;384.90;1382.40;;;;;;4893675;29;20040;-66
2023/03/13 11:34:26;;;;;;;21.35;13.00;;;409.70;1382.40;;;;;;4893434;29;20428;-64
2023/03/13 11:36:55;;;;;;;19.45;12.27;;;409.80;1382.40;;;;;;4819893;29;20026;-66
2023/03/13 11:39:29;;;;;;;24.08;9.93;;;384.90;1356.80;;;;;;4819738;29;20360;-66
2023/03/13 11:42:18;;;;;;;15.13;10.57;;;409.60;1408.00;;;;;;4807986;29;20494;-61
2023/03/13 11:45:05;;;;;;;15.15;7.72;;;409.60;1408.00;;;;;;4804626;29;20411;-66
2023/03/13 11:47:43;;;;;;;13.15;8.20;;;409.60;1382.40;;;;;;4819614;29;20039;-66
2023/03/13 11:50:30;;;;;;;14.35;8.48;;;384.90;1382.40;;;;;;4814125;29;20085;-60
2023/03/13 11:53:16;;;;;;;12.07;7.40;;;409.70;1408.00;;;;;;4819633;29;20078;-63
2023/03/13 11:55:58;;;;;;;10.45;7.18;;;410.00;1356.80;;;;;;4819447;29;20047;-63
2023/03/13 11:58:29;;;;;;;16.25;9.02;;;409.90;1356.80;;;;;;4809397;29;20079;-61
2023/03/13 12:01:12;;;;;;;10.48;6.25;;;410.20;1356.80;;;;;;4819232;29;20162;-60
2023/03/13 12:03:56;;;;;;;8.83;5.67;;;410.20;1356.80;;;;;;4819409;29;20038;-64
2023/03/13 12:06:36;;;;;;;14.95;8.55;;;410.20;1331.20;;;;;;4835711;29;20038;-60
2023/03/13 12:09:26;;;;;;;9.00;6.45;;;410.20;1331.20;;;;;;4941928;28;20467;-62
2023/03/13 12:12:10;;;;;;;7.95;5.53;;;410.30;1331.20;;;;;;4951920;28;20136;-67
2023/03/13 12:14:56;;;;;;;11.75;5.68;;;410.50;1356.80;;;;;;4940879;28;20027;-63
2023/03/13 12:17:36;;;;;;;10.48;5.93;;;410.50;1331.20;;;;;;4952140;28;20027;-62
2023/03/13 12:20:15;;;;;;;11.10;6.15;;;410.50;1305.60;;;;;;4950828;28;20066;-61